Time;durP1;ratioP1;P1;durP2;ratioP2;P2;SDS_P1;SDS_P2;PMS_P1;PMS_P2;Temp;Humidity;BMP_temperature;BMP_pressure;BME280_temperature;BME280_humidity;BME280_pressure;Samples;Min_cycle;Max_cycle;Signal;HPM_P1;HPM_P2
2021/10/25 00:01:34;;;;;;;48.40;24.75;;;;;;;2.32;81.26;102429.41;1687808;83;21113;-81
2021/10/25 00:04:01;;;;;;;45.17;23.98;;;;;;;2.31;81.25;102428.50;1687582;84;21121;-81
2021/10/25 00:06:27;;;;;;;45.45;23.70;;;;;;;2.29;81.28;102428.77;1687838;84;21618;-81
2021/10/25 00:08:54;;;;;;;43.65;24.25;;;;;;;2.30;81.37;102425.77;1687834;83;22548;-81
2021/10/25 00:11:21;;;;;;;45.73;24.47;;;;;;;2.29;81.36;102413.17;1687672;84;21196;-81
2021/10/25 00:13:50;;;;;;;48.90;25.23;;;;;;;2.30;81.38;102417.58;1687646;83;21169;-81
2021/10/25 00:16:18;;;;;;;54.80;26.10;;;;;;;2.30;81.42;102417.58;1687766;84;21126;-81
2021/10/25 00:18:45;;;;;;;51.58;25.12;;;;;;;2.31;81.48;102419.81;1687961;84;21041;-81
2021/10/25 00:21:12;;;;;;;48.48;23.73;;;;;;;2.30;81.43;102417.58;1687866;84;21926;-81
2021/10/25 00:23:40;;;;;;;48.23;25.55;;;;;;;2.29;81.53;102407.98;1687934;84;21118;-82
2021/10/25 00:26:07;;;;;;;48.17;24.50;;;;;;;2.29;81.55;102410.94;1687761;84;21082;-81
2021/10/25 00:28:35;;;;;;;46.02;24.15;;;;;;;2.30;81.62;102414.08;1688064;84;21145;-82
2021/10/25 00:31:02;;;;;;;51.50;24.87;;;;;;;2.30;81.66;102409.78;1687781;83;21125;-82
2021/10/25 00:33:29;;;;;;;51.95;23.75;;;;;;;2.31;81.70;102412.02;1688009;84;21824;-82
2021/10/25 00:35:57;;;;;;;53.75;24.70;;;;;;;2.32;81.68;102405.62;1688914;84;21117;-82
2021/10/25 00:38:24;;;;;;;48.30;24.25;;;;;;;2.32;81.68;102406.02;1689126;84;21682;-82
2021/10/25 00:40:50;;;;;;;54.42;24.27;;;;;;;2.32;81.75;102399.52;1688978;84;21105;-81
2021/10/25 00:43:17;;;;;;;51.83;23.52;;;;;;;2.32;81.79;102399.13;1689037;84;21066;-82
2021/10/25 00:45:44;;;;;;;47.67;22.90;;;;;;;2.34;81.76;102396.66;1688950;84;21755;-80
2021/10/25 00:48:11;;;;;;;47.75;23.98;;;;;;;2.33;81.69;102393.56;1688782;84;21149;-81
2021/10/25 00:50:40;;;;;;;48.08;23.60;;;;;;;2.32;81.83;102392.63;1688983;84;21074;-81
2021/10/25 00:53:09;;;;;;;46.18;23.87;;;;;;;2.32;81.74;102393.02;1688572;84;21050;-81
2021/10/25 00:55:39;;;;;;;50.25;24.27;;;;;;;2.32;81.84;102390.42;1689156;84;21079;-82
2021/10/25 00:58:09;;;;;;;47.90;22.82;;;;;;;2.32;81.85;102384.83;1688945;83;21735;-81
2021/10/25 01:00:36;;;;;;;46.28;24.77;;;;;;;2.32;81.90;102380.03;1688960;84;21628;-82
2021/10/25 01:03:05;;;;;;;45.48;24.27;;;;;;;2.32;81.94;102381.33;1688889;84;21595;-81
2021/10/25 01:05:32;;;;;;;46.92;24.35;;;;;;;2.33;81.90;102381.87;1688897;84;21150;-81
2021/10/25 01:08:03;;;;;;;46.25;21.87;;;;;;;2.33;81.94;102377.97;1665774;84;21117;-81
2021/10/25 01:10:30;;;;;;;50.50;22.62;;;;;;;2.31;81.86;102370.44;1689212;84;21767;-81
2021/10/25 01:13:00;;;;;;;40.10;22.77;;;;;;;2.32;81.95;102374.84;1688896;84;21523;-82
2021/10/25 01:15:27;;;;;;;43.48;22.20;;;;;;;2.31;81.97;102376.94;1689044;84;21630;-82
2021/10/25 01:17:57;;;;;;;49.27;23.42;;;;;;;2.30;81.95;102372.50;1689075;84;21129;-82
2021/10/25 01:20:26;;;;;;;44.45;22.95;;;;;;;2.27;81.92;102365.37;1688984;83;21102;-82
2021/10/25 01:22:53;;;;;;;45.58;22.35;;;;;;;2.26;81.91;102362.63;1688878;84;21765;-82
2021/10/25 01:25:21;;;;;;;45.50;21.90;;;;;;;2.23;81.97;102360.66;1688917;84;21094;-80
2021/10/25 01:27:50;;;;;;;43.52;21.80;;;;;;;2.24;82.01;102354.70;1665392;84;21090;-81
2021/10/25 01:30:17;;;;;;;44.42;21.55;;;;;;;2.24;82.07;102353.80;1688968;84;21089;-81
2021/10/25 01:32:45;;;;;;;47.23;22.67;;;;;;;2.24;82.10;102351.20;1689320;84;21607;-81
2021/10/25 01:35:12;;;;;;;46.60;21.97;;;;;;;2.23;82.11;102344.17;1688167;84;22552;-81
2021/10/25 01:37:39;;;;;;;42.58;21.50;;;;;;;2.24;82.15;102345.61;1687796;83;21054;-80
2021/10/25 01:40:07;;;;;;;46.13;21.80;;;;;;;2.24;82.23;102343.02;1688040;84;21133;-81
2021/10/25 01:42:38;;;;;;;52.17;21.55;;;;;;;2.24;82.19;102339.12;1687806;84;21263;-80
2021/10/25 01:45:04;;;;;;;53.85;21.82;;;;;;;2.24;82.19;102336.52;1687454;84;21211;-80
2021/10/25 01:47:34;;;;;;;51.48;24.00;;;;;;;2.23;82.08;102341.58;1687878;84;22571;-81
2021/10/25 01:50:00;;;;;;;48.17;24.87;;;;;;;2.19;81.89;102339.51;1687672;84;21098;-81
2021/10/25 01:52:26;;;;;;;45.85;24.80;;;;;;;2.13;81.59;102336.91;1687862;84;21062;-80
2021/10/25 01:54:53;;;;;;;45.25;24.60;;;;;;;2.06;81.52;102335.86;1687588;84;21592;-81
2021/10/25 01:57:20;;;;;;;47.25;25.77;;;;;;;2.00;81.40;102328.86;1687934;84;21125;-81
2021/10/25 01:59:47;;;;;;;49.40;26.40;;;;;;;1.94;81.39;102329.25;1687840;83;21760;-81
2021/10/25 02:02:17;;;;;;;48.65;25.97;;;;;;;1.91;81.42;102325.47;1687712;84;21023;-81
2021/10/25 02:04:43;;;;;;;46.20;25.48;;;;;;;1.87;81.36;102323.00;1687848;83;21039;-81
2021/10/25 02:07:10;;;;;;;49.23;24.87;;;;;;;1.83;81.34;102321.33;1687755;84;21109;-81
2021/10/25 02:09:36;;;;;;;52.15;24.90;;;;;;;1.77;81.24;102316.92;1688022;83;21093;-81
2021/10/25 02:12:04;;;;;;;43.08;23.50;;;;;;;1.72;81.31;102318.70;1687926;84;21351;-81
2021/10/25 02:14:31;;;;;;;40.17;22.98;;;;;;;1.71;81.38;102317.30;1687956;84;21168;-81
2021/10/25 02:17:01;;;;;;;50.23;24.52;;;;;;;1.68;81.40;102314.44;1688110;84;21618;-82
2021/10/25 02:19:26;;;;;;;46.70;22.80;;;;;;;1.66;81.42;102312.09;1687716;84;21613;-81
2021/10/25 02:21:57;;;;;;;52.83;22.42;;;;;;;1.64;81.46;102305.88;1687981;84;21039;-81
2021/10/25 02:24:21;;;;;;;53.10;22.20;;;;;;;1.63;81.57;102302.34;1687660;84;22542;-81
2021/10/25 02:26:52;;;;;;;46.18;23.12;;;;;;;1.66;81.88;102303.02;1687795;83;21109;-81
2021/10/25 02:29:17;;;;;;;45.83;22.17;;;;;;;1.67;81.96;102303.52;1687674;83;21078;-80
2021/10/25 02:31:44;;;;;;;41.85;22.52;;;;;;;1.70;82.17;102301.19;1687855;83;21596;-81
2021/10/25 02:34:14;;;;;;;50.05;21.52;;;;;;;1.73;82.38;102298.88;1686647;84;21626;-81
2021/10/25 02:36:41;;;;;;;45.70;21.37;;;;;;;1.77;82.45;102300.05;1683083;85;21901;-81
2021/10/25 02:39:10;;;;;;;46.75;22.90;;;;;;;1.81;82.51;102299.52;1659831;85;21065;-81
2021/10/25 02:41:37;;;;;;;57.85;23.35;;;;;;;1.82;82.53;102300.95;1683225;85;21128;-81
2021/10/25 02:44:06;;;;;;;48.52;22.07;;;;;;;1.83;82.60;102298.86;1659706;85;21074;-81
2021/10/25 02:46:32;;;;;;;44.27;22.17;;;;;;;1.87;82.60;102293.55;1683194;85;21093;-81
2021/10/25 02:49:05;;;;;;;45.85;23.32;;;;;;;1.89;82.70;102292.88;1692036;84;21757;-81
2021/10/25 02:51:30;;;;;;;44.53;22.42;;;;;;;1.90;82.65;102299.01;1691598;83;21120;-81
2021/10/25 02:53:57;;;;;;;47.90;23.18;;;;;;;1.90;82.66;102296.41;1692191;84;21109;-81
2021/10/25 02:56:24;;;;;;;47.60;22.82;;;;;;;1.90;82.68;102286.92;1692102;84;21125;-81
2021/10/25 02:58:51;;;;;;;47.55;21.97;;;;;;;1.90;82.59;102289.52;1692269;84;21590;-81
2021/10/25 03:01:18;;;;;;;47.20;23.52;;;;;;;1.91;82.63;102291.72;1692142;84;22538;-81
2021/10/25 03:03:44;;;;;;;43.85;23.10;;;;;;;1.89;82.66;102283.80;1692088;84;21139;-82
2021/10/25 03:06:11;;;;;;;49.73;22.95;;;;;;;1.90;82.64;102288.22;1692126;84;21116;-82
2021/10/25 03:08:38;;;;;;;51.13;23.20;;;;;;;1.89;82.62;102287.69;1692256;83;21115;-82
2021/10/25 03:11:05;;;;;;;42.58;21.15;;;;;;;1.89;82.64;102287.69;1691646;84;21374;-82
2021/10/25 03:13:32;;;;;;;42.27;22.22;;;;;;;1.89;82.60;102281.59;1692220;84;21764;-81
2021/10/25 03:15:59;;;;;;;49.30;23.40;;;;;;;1.89;82.64;102281.59;1692118;84;21101;-82
2021/10/25 03:18:25;;;;;;;45.98;22.60;;;;;;;1.89;82.70;102275.11;1692289;84;21152;-81
2021/10/25 03:20:52;;;;;;;45.90;24.00;;;;;;;1.88;82.65;102269.01;1692280;84;21128;-82
2021/10/25 03:23:19;;;;;;;44.23;24.07;;;;;;;1.87;82.67;102267.18;1692301;84;21100;-82
2021/10/25 03:25:46;;;;;;;50.83;26.25;;;;;;;1.88;82.67;102260.32;1692398;84;21837;-81
2021/10/25 03:28:16;;;;;;;46.02;24.90;;;;;;;1.86;82.59;102257.95;1692335;84;21718;-81
2021/10/25 03:30:46;;;;;;;47.50;24.82;;;;;;;1.85;82.62;102245.77;1692403;83;21093;-81
2021/10/25 03:33:12;;;;;;;53.00;25.23;;;;;;;1.82;82.57;102245.14;1667979;84;21285;-81
2021/10/25 03:35:43;;;;;;;48.55;22.90;;;;;;;1.81;82.56;102249.80;1691859;84;21088;-81
2021/10/25 03:38:09;;;;;;;46.92;24.87;;;;;;;1.79;82.51;102242.27;1691353;84;21817;-82
2021/10/25 03:40:39;;;;;;;42.95;23.65;;;;;;;1.76;82.38;102239.41;1656629;85;21575;-82
2021/10/25 03:43:08;;;;;;;44.15;21.90;;;;;;;1.71;82.35;102233.84;1660835;84;21100;-81
2021/10/25 03:45:44;;;;;;;44.77;22.58;;;;;;;1.69;82.24;102234.47;1656762;86;21224;-82
2021/10/25 03:48:19;;;;;;;44.60;22.45;;;;;;;1.64;82.22;102239.28;1708494;83;21122;-82
2021/10/25 03:50:39;;;;;;;46.28;22.93;;;;;;;1.61;82.25;102233.82;1708116;83;21865;-82
2021/10/25 03:53:18;;;;;;;48.35;22.45;;;;;;;1.59;82.20;102226.30;1723758;82;21553;-82
2021/10/25 04:28:25;;;;;;;54.67;28.02;;;;;;;1.18;82.34;102177.38;1699279;82;21048;-79
2021/10/25 04:31:00;;;;;;;60.85;26.05;;;;;;;1.16;82.39;102178.53;1699208;82;21734;-80
2021/10/25 04:33:24;;;;;;;;;;;;;;;1.15;82.49;102172.84;1701269;83;21157;-80
2021/10/25 04:35:51;;;;;;;54.70;27.52;;;;;;;1.18;82.55;102175.67;1695043;83;20222;-80
2021/10/25 04:38:20;;;;;;;50.20;26.82;;;;;;;1.17;82.57;102167.39;1693564;84;21338;-80
2021/10/25 04:40:49;;;;;;;52.85;24.57;;;;;;;1.16;82.56;102161.67;1693889;84;21107;-79
2021/10/25 04:43:19;;;;;;;48.87;24.55;;;;;;;1.15;82.69;102160.78;1694211;84;21780;-78
2021/10/25 04:45:49;;;;;;;50.67;25.40;;;;;;;1.16;82.73;102158.72;1693936;84;21096;-80
2021/10/25 04:48:41;;;;;;;44.42;22.22;;;;;;;1.19;82.75;102156.77;1694107;84;21114;-84
2021/10/25 04:51:07;;;;;;;49.55;24.35;;;;;;;1.19;82.78;102154.56;1691337;84;21158;-80
2021/10/25 04:53:35;;;;;;;44.53;24.65;;;;;;;1.23;83.02;102156.23;1693710;84;21084;-80
2021/10/25 04:56:05;;;;;;;48.25;24.15;;;;;;;1.25;83.04;102148.20;1706232;83;22577;-80
2021/10/25 04:58:30;;;;;;;50.35;24.18;;;;;;;1.25;82.91;102147.30;1718888;83;21150;-80
2021/10/25 05:00:57;;;;;;;46.13;23.35;;;;;;;1.25;82.82;102143.41;1719346;83;21153;-80
2021/10/25 05:03:24;;;;;;;44.83;21.82;;;;;;;1.24;82.78;102151.95;1719215;83;21082;-78
2021/10/25 05:05:51;;;;;;;44.75;22.65;;;;;;;1.24;82.78;102144.17;1719314;83;21674;-78
2021/10/25 05:08:18;;;;;;;48.60;24.15;;;;;;;1.22;82.73;102141.84;1719151;83;21843;-78
2021/10/25 05:10:46;;;;;;;50.25;24.72;;;;;;;1.21;82.68;102143.93;1718978;83;21564;-78
2021/10/25 05:13:13;;;;;;;49.58;25.17;;;;;;;1.19;82.74;102139.91;1719270;83;21137;-79
2021/10/25 05:15:40;;;;;;;50.35;26.25;;;;;;;1.19;82.67;102139.00;1719071;83;21429;-79
2021/10/25 05:18:07;;;;;;;58.30;27.15;;;;;;;1.18;82.79;102142.36;1718878;83;21042;-78
2021/10/25 05:20:34;;;;;;;51.37;25.50;;;;;;;1.20;82.91;102136.52;1718513;83;22509;-78
2021/10/25 05:23:02;;;;;;;48.00;26.42;;;;;;;1.21;82.87;102138.34;1718460;83;21153;-79
2021/10/25 05:25:30;;;;;;;51.42;24.55;;;;;;;1.21;82.80;102138.73;1718764;83;21078;-78
2021/10/25 05:27:57;;;;;;;43.90;24.20;;;;;;;1.20;82.81;102145.59;1719090;83;21226;-78
2021/10/25 05:30:23;;;;;;;55.15;23.02;;;;;;;1.21;82.95;102143.53;1718936;83;21138;-78
2021/10/25 05:32:50;;;;;;;45.48;22.40;;;;;;;1.24;83.07;102142.50;1718972;83;21756;-78
2021/10/25 05:35:17;;;;;;;41.13;21.33;;;;;;;1.25;82.98;102138.22;1712716;83;21529;-78
2021/10/25 05:37:44;;;;;;;47.98;22.80;;;;;;;1.25;83.00;102131.34;1691519;84;21048;-78
2021/10/25 05:40:11;;;;;;;44.00;21.93;;;;;;;1.26;83.05;102130.57;1703289;84;21174;-78
2021/10/25 05:42:38;;;;;;;49.80;22.45;;;;;;;1.28;83.05;102129.41;1703524;84;21106;-78
2021/10/25 05:45:07;;;;;;;48.40;23.00;;;;;;;1.31;83.15;102129.28;1702484;84;21106;-79
2021/10/25 05:47:36;;;;;;;40.10;21.00;;;;;;;1.35;83.18;102126.16;1703125;84;21091;-78
2021/10/25 05:50:03;;;;;;;47.45;21.10;;;;;;;1.39;83.15;102125.10;1703292;84;21106;-79
2021/10/25 05:52:29;;;;;;;45.70;22.60;;;;;;;1.43;83.21;102122.02;1679582;84;21586;-78
2021/10/25 05:54:56;;;;;;;46.18;22.42;;;;;;;1.46;83.24;102123.14;1703052;84;21036;-78
2021/10/25 05:57:23;;;;;;;43.05;21.60;;;;;;;1.51;83.21;102122.25;1703024;84;21832;-79
2021/10/25 05:59:50;;;;;;;52.48;23.47;;;;;;;1.55;83.22;102120.42;1703050;84;21086;-78
2021/10/25 06:02:28;;;;;;;46.70;22.37;;;;;;;1.58;83.19;102114.20;1703063;84;21114;-78
2021/10/25 06:04:51;;;;;;;43.65;21.57;;;;;;;1.62;83.18;102112.77;1702610;84;21083;-79
2021/10/25 06:07:18;;;;;;;42.88;22.27;;;;;;;1.66;83.16;102105.34;1703030;84;21122;-79
2021/10/25 06:09:45;;;;;;;43.05;21.55;;;;;;;1.69;83.16;102105.61;1703402;84;21744;-79
2021/10/25 06:12:18;;;;;;;46.25;22.20;;;;;;;1.74;83.21;102109.88;1703167;84;21067;-79
2021/10/25 06:14:46;;;;;;;45.95;23.32;;;;;;;1.80;83.27;102110.77;1703230;84;21117;-80
2021/10/25 06:17:23;;;;;;;54.03;23.77;;;;;;;1.86;83.28;102116.08;1702925;84;21118;-79
2021/10/25 06:19:43;;;;;;;42.78;22.00;;;;;;;1.92;83.30;102107.48;1702250;84;21066;-79
2021/10/25 06:22:10;;;;;;;45.03;22.55;;;;;;;1.98;83.27;102109.67;1703038;84;22593;-79
2021/10/25 06:24:37;;;;;;;47.35;22.82;;;;;;;2.04;83.24;102107.57;1702961;84;21012;-79
2021/10/25 06:27:04;;;;;;;44.45;22.52;;;;;;;2.09;83.22;102114.05;1703209;84;21245;-80
2021/10/25 06:29:31;;;;;;;47.03;22.45;;;;;;;2.16;83.20;102118.06;1703213;84;21568;-80
2021/10/25 06:31:58;;;;;;;46.33;23.60;;;;;;;2.22;83.14;102122.45;1703194;84;21138;-79
2021/10/25 06:34:27;;;;;;;54.30;25.35;;;;;;;2.27;83.17;102126.33;1703205;84;22834;-78
2021/10/25 06:36:54;;;;;;;45.30;21.95;;;;;;;2.32;83.20;102118.48;1718080;83;21022;-80
2021/10/25 06:39:24;;;;;;;50.45;22.90;;;;;;;2.40;83.18;102122.09;1718792;83;21169;-79
2021/10/25 06:41:50;;;;;;;43.33;23.80;;;;;;;2.47;83.16;102120.11;1719213;81;21280;-79
2021/10/25 06:44:17;;;;;;;50.55;25.20;;;;;;;2.56;83.17;102126.44;1719125;83;21034;-80
2021/10/25 06:46:44;;;;;;;41.02;22.85;;;;;;;2.63;83.12;102118.34;1718850;83;22004;-80
2021/10/25 06:49:11;;;;;;;49.55;24.15;;;;;;;2.70;83.06;102125.85;1718815;83;21089;-80
2021/10/25 06:51:38;;;;;;;52.83;26.00;;;;;;;2.77;83.04;102122.02;1718906;83;21102;-79
2021/10/25 06:54:05;;;;;;;51.98;26.27;;;;;;;2.83;83.00;102120.30;1718985;83;21093;-80
2021/10/25 06:56:32;;;;;;;51.48;26.40;;;;;;;2.90;82.98;102123.48;1718658;83;21162;-79
2021/10/25 06:58:59;;;;;;;52.08;26.27;;;;;;;2.98;82.88;102118.88;1718848;83;21780;-80
2021/10/25 07:01:26;;;;;;;61.55;26.40;;;;;;;3.03;82.85;102108.45;1718757;83;21086;-79
2021/10/25 07:03:53;;;;;;;41.98;22.25;;;;;;;3.11;82.86;102105.13;1718870;83;21086;-80
2021/10/25 07:06:19;;;;;;;43.08;22.50;;;;;;;3.18;82.76;102096.11;1718739;83;21145;-80
2021/10/25 07:08:48;;;;;;;47.93;22.75;;;;;;;3.24;82.77;102097.87;1719007;83;21121;-79
2021/10/25 07:11:15;;;;;;;49.18;22.90;;;;;;;3.31;82.75;102095.84;1718868;83;21782;-80
2021/10/25 07:13:47;;;;;;;44.53;24.45;;;;;;;3.38;82.73;102088.50;1718872;83;21058;-79
2021/10/25 07:16:17;;;;;;;50.08;23.42;;;;;;;3.46;82.71;102088.30;1718192;83;21089;-79
2021/10/25 07:19:09;;;;;;;45.08;24.05;;;;;;;3.54;82.66;102088.86;1718957;82;21364;-80
2021/10/25 08:05:10;;;;;;;34.75;18.25;;;;;;;4.92;81.37;102055.25;1716205;83;21942;-79
2021/10/25 08:07:34;;;;;;;42.65;20.80;;;;;;;4.97;81.24;102039.11;1714676;83;21153;-80
2021/10/25 08:09:59;;;;;;;37.20;20.12;;;;;;;5.05;81.18;102042.27;1716071;83;21098;-80
2021/10/25 08:12:27;;;;;;;35.52;19.62;;;;;;;5.10;80.99;102038.65;1716265;83;21150;-80
2021/10/25 08:14:57;;;;;;;39.40;20.57;;;;;;;5.16;81.00;102043.90;1716285;83;21110;-79
2021/10/25 08:17:24;;;;;;;34.65;19.48;;;;;;;5.25;80.95;102043.22;1716195;83;21868;-80
2021/10/25 08:19:50;;;;;;;39.38;20.88;;;;;;;5.36;80.91;102043.91;1716475;83;21118;-80
2021/10/25 08:22:17;;;;;;;41.37;20.65;;;;;;;5.45;80.74;102037.10;1716322;83;21098;-79
2021/10/25 08:24:51;;;;;;;40.03;21.02;;;;;;;5.52;80.62;102041.00;1716208;83;21079;-79
2021/10/25 08:27:20;;;;;;;35.60;19.62;;;;;;;5.57;80.53;102027.86;1716112;83;21750;-80
2021/10/25 08:29:49;;;;;;;40.33;20.32;;;;;;;5.65;80.48;102026.27;1692291;83;21126;-80
2021/10/25 08:32:30;;;;;;;38.48;20.02;;;;;;;5.74;80.29;102018.51;1716107;83;21047;-80
2021/10/25 08:35:00;;;;;;;39.40;20.37;;;;;;;5.76;80.03;102015.59;1715656;83;21081;-80
2021/10/25 08:39:58;;;;;;;37.35;19.98;;;;;;;5.85;79.97;102010.96;1703219;84;21590;-80
2021/10/25 08:42:28;;;;;;;36.98;20.77;;;;;;;5.91;79.86;102004.84;1703170;84;21807;-80
2021/10/25 08:45:03;;;;;;;31.70;18.27;;;;;;;5.97;79.73;102001.34;1703342;84;21103;-80
2021/10/25 08:47:35;;;;;;;33.48;19.15;;;;;;;6.02;79.54;102007.77;1702795;84;21071;-80
2021/10/25 08:49:56;;;;;;;32.60;18.90;;;;;;;6.07;79.48;102008.05;1702486;84;21102;-81
2021/10/25 08:52:24;;;;;;;38.42;19.67;;;;;;;6.13;79.38;101994.05;1703380;84;21114;-80
2021/10/25 08:54:52;;;;;;;39.20;19.52;;;;;;;6.20;79.31;101996.25;1703360;84;21764;-80
2021/10/25 08:57:19;;;;;;;41.45;20.45;;;;;;;6.28;79.19;101993.22;1703031;84;21075;-80
2021/10/25 09:00:06;;;;;;;40.43;19.42;;;;;;;6.32;79.05;101992.17;1703572;84;21063;-80
2021/10/25 09:02:33;;;;;;;38.50;19.98;;;;;;;6.38;79.08;101984.73;1703468;84;21125;-80
2021/10/25 09:05:16;;;;;;;34.00;19.00;;;;;;;6.52;79.01;101982.06;1751355;80;21058;-80
2021/10/25 09:07:58;;;;;;;37.23;17.65;;;;;;;6.61;78.84;101979.59;1789570;79;21540;-80
2021/10/25 09:10:41;;;;;;;33.67;18.27;;;;;;;6.70;78.57;101982.26;1789612;79;21583;-80
2021/10/25 09:13:18;;;;;;;32.88;16.45;;;;;;;6.77;78.43;101978.79;1789310;79;21537;-79
2021/10/25 09:15:49;;;;;;;29.75;17.07;;;;;;;6.88;78.32;101976.83;1789600;80;21013;-80
2021/10/25 09:18:26;;;;;;;34.50;17.67;;;;;;;6.96;78.10;101966.80;1768792;80;21035;-80
2021/10/25 09:20:57;;;;;;;33.58;17.48;;;;;;;7.04;78.02;101968.56;1788665;79;22654;-79
2021/10/25 09:23:28;;;;;;;26.95;15.83;;;;;;;7.08;77.76;101962.72;1789370;80;21003;-80
2021/10/25 09:25:58;;;;;;;30.68;16.65;;;;;;;7.15;77.81;101965.78;1789502;79;21085;-80
2021/10/25 09:28:29;;;;;;;31.07;16.52;;;;;;;7.24;77.75;101959.27;1771399;80;21062;-80
2021/10/25 09:31:01;;;;;;;26.48;16.85;;;;;;;7.33;77.65;101958.48;1789552;80;21106;-80
2021/10/25 09:33:35;;;;;;;30.45;17.12;;;;;;;7.42;77.56;101966.88;1789626;79;22427;-80
2021/10/25 09:36:05;;;;;;;33.15;18.35;;;;;;;7.50;77.37;101965.58;1789292;78;21062;-80
2021/10/25 09:49:33;;;;;;;31.17;15.98;;;;;;;7.90;76.39;101945.94;1789606;79;21019;-80
2021/10/25 09:52:05;;;;;;;33.38;17.05;;;;;;;7.93;76.25;101940.88;1789573;79;21062;-80
2021/10/25 09:54:33;;;;;;;33.25;16.37;;;;;;;7.96;76.04;101940.64;1790102;80;21433;-80
2021/10/25 09:57:05;;;;;;;34.67;18.37;;;;;;;8.01;76.07;101946.54;1789693;80;21039;-79
2021/10/25 10:02:09;;;;;;;29.87;16.52;;;;;;;8.14;75.75;101930.65;1790198;79;21034;-79
2021/10/25 10:04:35;;;;;;;30.00;17.65;;;;;;;8.18;75.58;101937.86;1790024;79;21145;-80
2021/10/25 10:07:03;;;;;;;28.02;15.40;;;;;;;8.23;75.47;101929.83;1789911;80;21019;-80
2021/10/25 10:09:29;;;;;;;29.92;15.68;;;;;;;8.31;75.46;101931.55;1789848;79;21058;-79
2021/10/25 10:11:57;;;;;;;33.78;16.35;;;;;;;8.43;75.46;101933.94;1790206;80;21697;-79
2021/10/25 10:14:25;;;;;;;26.20;14.47;;;;;;;8.52;75.37;101929.18;1789928;79;21038;-80
2021/10/25 10:16:52;;;;;;;29.15;14.45;;;;;;;8.63;75.33;101921.45;1790204;79;21042;-79
2021/10/25 10:19:24;;;;;;;29.30;17.55;;;;;;;8.72;74.76;101921.03;1790081;79;21031;-79
2021/10/25 10:21:48;;;;;;;29.50;14.68;;;;;;;8.77;74.64;101918.66;1789914;79;21135;-79
2021/10/25 10:24:15;;;;;;;25.52;14.95;;;;;;;8.83;74.52;101907.16;1790187;79;22515;-79
2021/10/25 10:26:43;;;;;;;24.70;13.93;;;;;;;8.90;74.44;101902.70;1790043;80;20996;-80
2021/10/25 10:29:14;;;;;;;28.98;14.13;;;;;;;8.98;74.31;101905.29;1745488;80;21365;-79
2021/10/25 10:31:41;;;;;;;26.20;13.70;;;;;;;9.05;74.03;101903.89;1790278;80;21042;-79
2021/10/25 10:34:13;;;;;;;24.70;12.18;;;;;;;9.11;73.88;101906.80;1790346;80;21047;-79
2021/10/25 10:36:53;;;;;;;26.37;15.38;;;;;;;9.17;73.72;101896.59;1789599;78;20995;-79
2021/10/25 10:39:20;;;;;;;25.92;13.20;;;;;;;9.20;73.37;101881.41;1789750;79;21051;-79
2021/10/25 10:42:02;;;;;;;24.12;11.88;;;;;;;9.20;73.15;101882.73;1790161;79;21466;-80
2021/10/25 10:44:28;;;;;;;23.80;12.60;;;;;;;9.21;72.90;101870.06;1790020;79;21353;-80
2021/10/25 10:47:00;;;;;;;20.65;12.03;;;;;;;9.24;72.86;101863.66;1790114;79;21065;-80
2021/10/25 10:49:39;;;;;;;21.50;10.88;;;;;;;9.28;72.76;101857.72;1790381;80;21866;-80
2021/10/25 10:52:38;;;;;;;18.20;11.15;;;;;;;9.32;72.60;101853.09;1790160;80;21071;-79
2021/10/25 10:55:24;;;;;;;20.65;11.00;;;;;;;9.37;72.45;101852.01;1785726;79;21794;-80
2021/10/25 11:00:44;;;;;;;21.35;10.43;;;;;;;9.45;72.22;101847.58;1789384;79;21074;-78
2021/10/25 11:03:16;;;;;;;21.17;9.90;;;;;;;9.52;72.13;101840.47;1705449;82;21762;-80
2021/10/25 11:06:03;;;;;;;20.12;10.50;;;;;;;9.61;72.03;101836.47;1705523;84;21076;-80
2021/10/25 11:08:40;;;;;;;19.12;10.30;;;;;;;9.67;71.78;101840.29;1705462;84;21097;-80
2021/10/25 11:11:10;;;;;;;21.37;11.18;;;;;;;9.73;71.62;101836.62;1705127;82;21123;-79
2021/10/25 11:13:46;;;;;;;20.77;10.38;;;;;;;9.79;71.39;101831.16;1705407;84;21116;-79
2021/10/25 11:16:22;;;;;;;19.77;10.95;;;;;;;9.83;71.23;101833.98;1705080;84;21822;-80
2021/10/25 11:18:48;;;;;;;20.68;11.28;;;;;;;9.89;71.12;101832.97;1703683;84;21025;-80
2021/10/25 11:21:28;;;;;;;19.57;11.12;;;;;;;9.97;71.08;101835.05;1705237;84;21069;-79
2021/10/25 11:24:12;;;;;;;25.37;11.60;;;;;;;10.02;70.96;101830.88;1705021;84;21202;-79
2021/10/25 11:26:43;;;;;;;21.00;12.03;;;;;;;10.04;70.77;101824.87;1705144;84;21115;-79
2021/10/25 11:29:28;;;;;;;20.95;11.85;;;;;;;10.07;70.54;101827.61;1705042;84;21725;-79
2021/10/25 11:31:57;;;;;;;26.25;10.63;;;;;;;10.12;70.49;101825.20;1703493;84;21045;-80
2021/10/25 11:34:29;;;;;;;19.23;9.85;;;;;;;10.15;70.07;101810.84;1705133;84;21096;-80
2021/10/25 11:37:12;;;;;;;21.80;9.70;;;;;;;10.18;69.92;101814.05;1709651;82;21184;-80
2021/10/25 11:42:24;;;;;;;20.55;11.97;;;;;;;10.21;69.57;101804.95;1804183;78;21823;-79
2021/10/25 11:44:53;;;;;;;24.67;11.73;;;;;;;10.21;69.51;101797.98;1803868;79;21073;-79
2021/10/25 11:47:31;;;;;;;20.90;10.35;;;;;;;10.24;69.49;101791.94;1804084;78;22137;-80
2021/10/25 11:50:01;;;;;;;18.10;9.90;;;;;;;10.26;69.36;101785.90;1804189;78;21559;-80
2021/10/25 11:53:01;;;;;;;14.90;8.85;;;;;;;10.28;69.15;101783.34;1804170;79;21078;-79
2021/10/25 11:55:37;;;;;;;17.48;9.70;;;;;;;10.31;68.96;101786.14;1804236;79;21750;-80
2021/10/25 11:58:13;;;;;;;23.75;9.98;;;;;;;10.33;68.69;101779.64;1803878;79;22206;-80
2021/10/25 12:00:44;;;;;;;17.80;9.33;;;;;;;10.31;68.40;101762.47;1804176;79;21117;-79
2021/10/25 12:03:13;;;;;;;19.75;11.18;;;;;;;10.30;68.34;101767.20;1799041;79;21609;-79
2021/10/25 12:05:42;;;;;;;19.48;10.55;;;;;;;10.31;68.35;101758.52;1798951;79;21034;-79
2021/10/25 12:08:11;;;;;;;18.73;9.90;;;;;;;10.30;68.25;101762.89;1798333;79;22478;-80
2021/10/25 12:10:38;;;;;;;22.58;12.47;;;;;;;10.30;68.14;101758.94;1799075;79;21059;-79
2021/10/25 12:13:07;;;;;;;17.90;9.15;;;;;;;10.29;68.08;101761.05;1799176;79;21516;-79
2021/10/25 12:15:37;;;;;;;19.50;9.65;;;;;;;10.28;67.98;101756.59;1799094;79;21031;-80
2021/10/25 12:18:05;;;;;;;17.70;9.58;;;;;;;10.30;67.74;101767.20;1799052;79;21050;-79
2021/10/25 12:20:37;;;;;;;24.67;12.80;;;;;;;10.30;67.62;101765.87;1799048;79;22321;-80
2021/10/25 12:23:13;;;;;;;18.80;9.58;;;;;;;10.30;67.47;101765.87;1798972;79;21114;-78
2021/10/25 12:25:40;;;;;;;26.25;11.08;;;;;;;10.28;67.32;101763.17;1798953;79;21066;-79
2021/10/25 12:28:14;;;;;;;17.50;9.48;;;;;;;10.26;67.11;101756.95;1798705;79;21038;-80
2021/10/25 12:30:41;;;;;;;15.78;9.53;;;;;;;10.27;67.04;101761.83;1799072;79;21125;-79
2021/10/25 12:33:08;;;;;;;36.00;11.60;;;;;;;10.27;66.93;101757.88;1799026;79;22450;-80
2021/10/25 12:35:44;;;;;;;18.37;9.68;;;;;;;10.28;66.91;101749.13;1798956;79;21110;-80
2021/10/25 12:38:14;;;;;;;18.15;10.20;;;;;;;10.28;66.92;101757.91;1787361;79;21115;-79
2021/10/25 12:40:48;;;;;;;20.50;9.93;;;;;;;10.27;66.79;101754.81;1789609;80;21050;-80
2021/10/25 12:43:16;;;;;;;23.35;9.75;;;;;;;10.27;66.74;101756.14;1753095;81;21058;-80
2021/10/25 12:45:57;;;;;;;21.77;11.63;;;;;;;10.30;66.63;101759.30;1784031;80;21815;-80
2021/10/25 12:48:25;;;;;;;24.80;12.45;;;;;;;10.29;66.53;101755.78;1789839;79;21065;-79
2021/10/25 12:51:01;;;;;;;20.65;10.78;;;;;;;10.27;66.38;101753.50;1790292;80;20978;-79
2021/10/25 12:53:31;;;;;;;19.52;10.85;;;;;;;10.29;66.34;101746.57;1789997;80;21058;-79
2021/10/25 12:55:58;;;;;;;21.15;10.80;;;;;;;10.27;66.24;101735.52;1790324;80;21051;-79
2021/10/25 12:58:25;;;;;;;19.50;11.83;;;;;;;10.27;66.24;101745.61;1789878;79;21706;-78
2021/10/25 13:00:53;;;;;;;20.23;12.03;;;;;;;10.28;66.14;101742.55;1790324;79;21000;-79
2021/10/25 13:03:22;;;;;;;23.57;11.93;;;;;;;10.26;65.99;101752.12;1790365;79;21093;-79
2021/10/25 13:05:50;;;;;;;20.27;10.45;;;;;;;10.23;65.93;101757.23;1771973;80;21560;-79